sensor_id;sensor_type;location;lat;lon;timestamp;P1;P2;P0
75946;PMS5003;64628;50.104;14.614;2022-11-20T00:00:47;181;138;
75946;PMS5003;64628;50.104;14.614;2022-11-20T00:03:13;167;135;
75946;PMS5003;64628;50.104;14.614;2022-11-20T00:05:38;177;136;
75946;PMS5003;64628;50.104;14.614;2022-11-20T00:08:09;166;130;
75946;PMS5003;64628;50.104;14.614;2022-11-20T00:10:38;195;151;
75946;PMS5003;64628;50.104;14.614;2022-11-20T00:12:54;218;172;
75946;PMS5003;64628;50.104;14.614;2022-11-20T00:15:25;196;157;
75946;PMS5003;64628;50.104;14.614;2022-11-20T00:17:47;186;160;
75946;PMS5003;64628;50.104;14.614;2022-11-20T00:20:11;184;145;
75946;PMS5003;64628;50.104;14.614;2022-11-20T00:22:36;189;152;
75946;PMS5003;64628;50.104;14.614;2022-11-20T00:25:07;217;169;
75946;PMS5003;64628;50.104;14.614;2022-11-20T00:27:28;177;145;
75946;PMS5003;64628;50.104;14.614;2022-11-20T00:29:58;195;159;
75946;PMS5003;64628;50.104;14.614;2022-11-20T00:32:24;201;154;
75946;PMS5003;64628;50.104;14.614;2022-11-20T00:37:10;228;151;
75946;PMS5003;64628;50.104;14.614;2022-11-20T00:39:35;175;145;
75946;PMS5003;64628;50.104;14.614;2022-11-20T00:44:25;191;145;
75946;PMS5003;64628;50.104;14.614;2022-11-20T00:46:55;177;138;
75946;PMS5003;64628;50.104;14.614;2022-11-20T00:49:16;173;135;
75946;PMS5003;64628;50.104;14.614;2022-11-20T00:51:42;188;156;
75946;PMS5003;64628;50.104;14.614;2022-11-20T00:54:07;187;140;
75946;PMS5003;64628;50.104;14.614;2022-11-20T00:56:32;183;144;
75946;PMS5003;64628;50.104;14.614;2022-11-20T00:58:59;177;139;
75946;PMS5003;64628;50.104;14.614;2022-11-20T01:01:24;183;145;
75946;PMS5003;64628;50.104;14.614;2022-11-20T01:03:50;184;141;
75946;PMS5003;64628;50.104;14.614;2022-11-20T01:06:16;189;139;
75946;PMS5003;64628;50.104;14.614;2022-11-20T01:08:41;182;150;
75946;PMS5003;64628;50.104;14.614;2022-11-20T01:11:07;190;136;
75946;PMS5003;64628;50.104;14.614;2022-11-20T01:13:32;191;157;
75946;PMS5003;64628;50.104;14.614;2022-11-20T01:16:02;175;140;
75946;PMS5003;64628;50.104;14.614;2022-11-20T01:18:22;201;144;
75946;PMS5003;64628;50.104;14.614;2022-11-20T01:20:48;182;151;
75946;PMS5003;64628;50.104;14.614;2022-11-20T01:23:12;211;157;
75946;PMS5003;64628;50.104;14.614;2022-11-20T01:25:38;189;151;
75946;PMS5003;64628;50.104;14.614;2022-11-20T01:28:03;165;145;
75946;PMS5003;64628;50.104;14.614;2022-11-20T01:30:34;173;141;
75946;PMS5003;64628;50.104;14.614;2022-11-20T01:32:55;165;141;
75946;PMS5003;64628;50.104;14.614;2022-11-20T01:35:21;189;151;
75946;PMS5003;64628;50.104;14.614;2022-11-20T01:37:45;174;140;
75946;PMS5003;64628;50.104;14.614;2022-11-20T01:40:16;183;140;
75946;PMS5003;64628;50.104;14.614;2022-11-20T01:42:38;160;129;
75946;PMS5003;64628;50.104;14.614;2022-11-20T01:47:31;176;134;
75946;PMS5003;64628;50.104;14.614;2022-11-20T01:49:55;175;136;
75946;PMS5003;64628;50.104;14.614;2022-11-20T01:52:21;156;130;
75946;PMS5003;64628;50.104;14.614;2022-11-20T01:54:46;158;123;
75946;PMS5003;64628;50.104;14.614;2022-11-20T01:57:10;168;134;
75946;PMS5003;64628;50.104;14.614;2022-11-20T01:59:36;184;139;
75946;PMS5003;64628;50.104;14.614;2022-11-20T02:02:02;193;139;
75946;PMS5003;64628;50.104;14.614;2022-11-20T02:04:28;179;135;
75946;PMS5003;64628;50.104;14.614;2022-11-20T02:07:02;184;139;
75946;PMS5003;64628;50.104;14.614;2022-11-20T02:09:23;150;131;
75946;PMS5003;64628;50.104;14.614;2022-11-20T02:11:48;166;130;
75946;PMS5003;64628;50.104;14.614;2022-11-20T02:14:09;175;124;
75946;PMS5003;64628;50.104;14.614;2022-11-20T02:16:35;180;146;
75946;PMS5003;64628;50.104;14.614;2022-11-20T02:19:01;173;141;
75946;PMS5003;64628;50.104;14.614;2022-11-20T02:21:28;178;139;
75946;PMS5003;64628;50.104;14.614;2022-11-20T02:23:56;155;131;
75946;PMS5003;64628;50.104;14.614;2022-11-20T02:26:16;156;131;
75946;PMS5003;64628;50.104;14.614;2022-11-20T02:28:42;170;137;
75946;PMS5003;64628;50.104;14.614;2022-11-20T02:31:07;186;150;
75946;PMS5003;64628;50.104;14.614;2022-11-20T02:33:34;180;133;
75946;PMS5003;64628;50.104;14.614;2022-11-20T02:35:59;176;136;
75946;PMS5003;64628;50.104;14.614;2022-11-20T02:38:23;178;134;
75946;PMS5003;64628;50.104;14.614;2022-11-20T02:40:54;197;147;
75946;PMS5003;64628;50.104;14.614;2022-11-20T02:43:18;186;143;
75946;PMS5003;64628;50.104;14.614;2022-11-20T02:45:39;174;134;
75946;PMS5003;64628;50.104;14.614;2022-11-20T02:48:05;181;138;
75946;PMS5003;64628;50.104;14.614;2022-11-20T02:50:30;165;134;
75946;PMS5003;64628;50.104;14.614;2022-11-20T02:52:56;159;119;
75946;PMS5003;64628;50.104;14.614;2022-11-20T02:55:21;178;138;
75946;PMS5003;64628;50.104;14.614;2022-11-20T02:57:47;172;135;
75946;PMS5003;64628;50.104;14.614;2022-11-20T03:00:19;170;137;
75946;PMS5003;64628;50.104;14.614;2022-11-20T03:02:39;175;138;
75946;PMS5003;64628;50.104;14.614;2022-11-20T03:05:04;150;123;
75946;PMS5003;64628;50.104;14.614;2022-11-20T03:07:29;164;126;
75946;PMS5003;64628;50.104;14.614;2022-11-20T03:09:54;163;124;
75946;PMS5003;64628;50.104;14.614;2022-11-20T03:12:19;167;138;
75946;PMS5003;64628;50.104;14.614;2022-11-20T03:14:55;196;135;
75946;PMS5003;64628;50.104;14.614;2022-11-20T03:17:15;178;145;
75946;PMS5003;64628;50.104;14.614;2022-11-20T03:19:38;178;144;
75946;PMS5003;64628;50.104;14.614;2022-11-20T03:22:05;156;130;
75946;PMS5003;64628;50.104;14.614;2022-11-20T03:24:26;155;120;
75946;PMS5003;64628;50.104;14.614;2022-11-20T03:26:51;159;129;
75946;PMS5003;64628;50.104;14.614;2022-11-20T03:29:17;155;129;
75946;PMS5003;64628;50.104;14.614;2022-11-20T03:31:43;151;119;
75946;PMS5003;64628;50.104;14.614;2022-11-20T03:34:13;129;106;
75946;PMS5003;64628;50.104;14.614;2022-11-20T03:36:44;153;129;
75946;PMS5003;64628;50.104;14.614;2022-11-20T03:39:04;129;110;
75946;PMS5003;64628;50.104;14.614;2022-11-20T03:41:25;156;129;
75946;PMS5003;64628;50.104;14.614;2022-11-20T03:43:50;153;127;
75946;PMS5003;64628;50.104;14.614;2022-11-20T03:46:15;135;114;
75946;PMS5003;64628;50.104;14.614;2022-11-20T03:48:40;141;105;
75946;PMS5003;64628;50.104;14.614;2022-11-20T03:51:07;131;115;
75946;PMS5003;64628;50.104;14.614;2022-11-20T03:53:35;159;121;
75946;PMS5003;64628;50.104;14.614;2022-11-20T03:55:56;140;114;
75946;PMS5003;64628;50.104;14.614;2022-11-20T03:58:22;134;110;
75946;PMS5003;64628;50.104;14.614;2022-11-20T04:00:52;154;121;
75946;PMS5003;64628;50.104;14.614;2022-11-20T04:03:13;140;101;
75946;PMS5003;64628;50.104;14.614;2022-11-20T04:05:44;134;101;
75946;PMS5003;64628;50.104;14.614;2022-11-20T04:08:05;152;117;
75946;PMS5003;64628;50.104;14.614;2022-11-20T04:10:30;143;102;
75946;PMS5003;64628;50.104;14.614;2022-11-20T04:12:55;148;115;
75946;PMS5003;64628;50.104;14.614;2022-11-20T04:15:21;155;115;
75946;PMS5003;64628;50.104;14.614;2022-11-20T04:17:52;134;105;
75946;PMS5003;64628;50.104;14.614;2022-11-20T04:20:12;148;115;
75946;PMS5003;64628;50.104;14.614;2022-11-20T04:22:38;159;115;
75946;PMS5003;64628;50.104;14.614;2022-11-20T04:25:04;125;99;
75946;PMS5003;64628;50.104;14.614;2022-11-20T04:27:28;150;110;
75946;PMS5003;64628;50.104;14.614;2022-11-20T04:29:54;152;116;
75946;PMS5003;64628;50.104;14.614;2022-11-20T04:32:24;156;116;
75946;PMS5003;64628;50.104;14.614;2022-11-20T04:34:44;136;106;
75946;PMS5003;64628;50.104;14.614;2022-11-20T04:37:10;146;118;
75946;PMS5003;64628;50.104;14.614;2022-11-20T04:39:35;153;113;
75946;PMS5003;64628;50.104;14.614;2022-11-20T04:42:01;150;116;
75946;PMS5003;64628;50.104;14.614;2022-11-20T04:44:25;136;109;
75946;PMS5003;64628;50.104;14.614;2022-11-20T04:46:51;162;120;
75946;PMS5003;64628;50.104;14.614;2022-11-20T04:49:17;148;108;
75946;PMS5003;64628;50.104;14.614;2022-11-20T04:51:42;158;114;
75946;PMS5003;64628;50.104;14.614;2022-11-20T04:54:08;157;119;
75946;PMS5003;64628;50.104;14.614;2022-11-20T04:56:32;145;115;
75946;PMS5003;64628;50.104;14.614;2022-11-20T04:58:59;148;111;
75946;PMS5003;64628;50.104;14.614;2022-11-20T05:01:28;142;107;
75946;PMS5003;64628;50.104;14.614;2022-11-20T05:03:49;147;118;
75946;PMS5003;64628;50.104;14.614;2022-11-20T05:06:16;137;111;
75946;PMS5003;64628;50.104;14.614;2022-11-20T05:08:40;147;113;
75946;PMS5003;64628;50.104;14.614;2022-11-20T05:11:06;145;111;
75946;PMS5003;64628;50.104;14.614;2022-11-20T05:13:31;147;110;
75946;PMS5003;64628;50.104;14.614;2022-11-20T05:16:00;144;106;
75946;PMS5003;64628;50.104;14.614;2022-11-20T05:18:22;154;111;
75946;PMS5003;64628;50.104;14.614;2022-11-20T05:23:13;147;110;
75946;PMS5003;64628;50.104;14.614;2022-11-20T05:25:47;142;111;
75946;PMS5003;64628;50.104;14.614;2022-11-20T05:28:04;129;100;
75946;PMS5003;64628;50.104;14.614;2022-11-20T05:30:35;145;110;
75946;PMS5003;64628;50.104;14.614;2022-11-20T05:32:55;145;103;
75946;PMS5003;64628;50.104;14.614;2022-11-20T05:35:20;142;104;
75946;PMS5003;64628;50.104;14.614;2022-11-20T05:37:52;138;107;
75946;PMS5003;64628;50.104;14.614;2022-11-20T05:40:12;159;103;
75946;PMS5003;64628;50.104;14.614;2022-11-20T05:42:37;121;104;
75946;PMS5003;64628;50.104;14.614;2022-11-20T05:45:03;149;114;
75946;PMS5003;64628;50.104;14.614;2022-11-20T05:47:30;148;119;
75946;PMS5003;64628;50.104;14.614;2022-11-20T05:49:54;152;118;
75946;PMS5003;64628;50.104;14.614;2022-11-20T05:52:19;152;114;
75946;PMS5003;64628;50.104;14.614;2022-11-20T05:54:45;137;111;
75946;PMS5003;64628;50.104;14.614;2022-11-20T05:57:16;150;116;
75946;PMS5003;64628;50.104;14.614;2022-11-20T05:59:37;142;113;
75946;PMS5003;64628;50.104;14.614;2022-11-20T06:02:01;144;113;
75946;PMS5003;64628;50.104;14.614;2022-11-20T06:04:34;166;118;
75946;PMS5003;64628;50.104;14.614;2022-11-20T06:06:53;159;118;
75946;PMS5003;64628;50.104;14.614;2022-11-20T06:09:18;156;119;
75946;PMS5003;64628;50.104;14.614;2022-11-20T06:11:54;135;109;
75946;PMS5003;64628;50.104;14.614;2022-11-20T06:14:09;150;114;
75946;PMS5003;64628;50.104;14.614;2022-11-20T06:16:34;142;118;
75946;PMS5003;64628;50.104;14.614;2022-11-20T06:19:00;157;118;
75946;PMS5003;64628;50.104;14.614;2022-11-20T06:21:26;136;107;
75946;PMS5003;64628;50.104;14.614;2022-11-20T06:23:51;146;114;
75946;PMS5003;64628;50.104;14.614;2022-11-20T06:26:17;135;111;
75946;PMS5003;64628;50.104;14.614;2022-11-20T06:28:47;149;122;
75946;PMS5003;64628;50.104;14.614;2022-11-20T06:31:09;144;115;
75946;PMS5003;64628;50.104;14.614;2022-11-20T06:33:34;140;112;
75946;PMS5003;64628;50.104;14.614;2022-11-20T06:35:59;149;115;
75946;PMS5003;64628;50.104;14.614;2022-11-20T06:38:24;156;127;
75946;PMS5003;64628;50.104;14.614;2022-11-20T06:40:50;142;102;
75946;PMS5003;64628;50.104;14.614;2022-11-20T06:43:15;152;121;
75946;PMS5003;64628;50.104;14.614;2022-11-20T06:45:40;163;123;
75946;PMS5003;64628;50.104;14.614;2022-11-20T06:48:17;151;116;
75946;PMS5003;64628;50.104;14.614;2022-11-20T06:50:37;166;118;
75946;PMS5003;64628;50.104;14.614;2022-11-20T06:53:01;127;104;
75946;PMS5003;64628;50.104;14.614;2022-11-20T06:55:23;160;117;
75946;PMS5003;64628;50.104;14.614;2022-11-20T06:57:50;142;109;
75946;PMS5003;64628;50.104;14.614;2022-11-20T07:00:15;153;118;
75946;PMS5003;64628;50.104;14.614;2022-11-20T07:02:40;160;117;
75946;PMS5003;64628;50.104;14.614;2022-11-20T07:05:06;138;113;
75946;PMS5003;64628;50.104;14.614;2022-11-20T07:07:31;140;114;
75946;PMS5003;64628;50.104;14.614;2022-11-20T07:09:57;157;122;
75946;PMS5003;64628;50.104;14.614;2022-11-20T07:12:22;157;120;
75946;PMS5003;64628;50.104;14.614;2022-11-20T07:14:48;164;109;
75946;PMS5003;64628;50.104;14.614;2022-11-20T07:17:13;143;106;
75946;PMS5003;64628;50.104;14.614;2022-11-20T07:19:39;141;112;
75946;PMS5003;64628;50.104;14.614;2022-11-20T07:22:04;131;103;
75946;PMS5003;64628;50.104;14.614;2022-11-20T07:24:30;128;100;
75946;PMS5003;64628;50.104;14.614;2022-11-20T07:26:55;132;98;
75946;PMS5003;64628;50.104;14.614;2022-11-20T07:29:21;134;116;
75946;PMS5003;64628;50.104;14.614;2022-11-20T07:31:47;154;114;
75946;PMS5003;64628;50.104;14.614;2022-11-20T07:34:13;129;106;
75946;PMS5003;64628;50.104;14.614;2022-11-20T07:36:38;143;110;
75946;PMS5003;64628;50.104;14.614;2022-11-20T07:39:03;124;99;
75946;PMS5003;64628;50.104;14.614;2022-11-20T07:41:28;155;111;
75946;PMS5003;64628;50.104;14.614;2022-11-20T07:43:54;131;101;
75946;PMS5003;64628;50.104;14.614;2022-11-20T07:46:20;129;98;
75946;PMS5003;64628;50.104;14.614;2022-11-20T07:48:45;130;98;
75946;PMS5003;64628;50.104;14.614;2022-11-20T07:51:10;127;86;
75946;PMS5003;64628;50.104;14.614;2022-11-20T07:53:35;109;90;
75946;PMS5003;64628;50.104;14.614;2022-11-20T07:56:00;131;97;
75946;PMS5003;64628;50.104;14.614;2022-11-20T07:58:27;139;99;
75946;PMS5003;64628;50.104;14.614;2022-11-20T08:00:52;136;101;
75946;PMS5003;64628;50.104;14.614;2022-11-20T08:03:18;140;106;
75946;PMS5003;64628;50.104;14.614;2022-11-20T08:05:43;131;105;
75946;PMS5003;64628;50.104;14.614;2022-11-20T08:08:09;128;95;
75946;PMS5003;64628;50.104;14.614;2022-11-20T08:10:35;134;103;
75946;PMS5003;64628;50.104;14.614;2022-11-20T08:13:00;114;96;
75946;PMS5003;64628;50.104;14.614;2022-11-20T08:15:26;104;86;
75946;PMS5003;64628;50.104;14.614;2022-11-20T08:17:58;114;89;
75946;PMS5003;64628;50.104;14.614;2022-11-20T08:20:18;122;97;
75946;PMS5003;64628;50.104;14.614;2022-11-20T08:22:42;128;96;
75946;PMS5003;64628;50.104;14.614;2022-11-20T08:25:08;116;97;
75946;PMS5003;64628;50.104;14.614;2022-11-20T08:27:33;105;92;
75946;PMS5003;64628;50.104;14.614;2022-11-20T08:29:59;128;93;
75946;PMS5003;64628;50.104;14.614;2022-11-20T08:32:24;109;93;
75946;PMS5003;64628;50.104;14.614;2022-11-20T08:34:55;126;100;
75946;PMS5003;64628;50.104;14.614;2022-11-20T08:37:15;115;85;
75946;PMS5003;64628;50.104;14.614;2022-11-20T08:39:41;112;96;
75946;PMS5003;64628;50.104;14.614;2022-11-20T08:42:07;122;98;
75946;PMS5003;64628;50.104;14.614;2022-11-20T08:44:32;120;96;
75946;PMS5003;64628;50.104;14.614;2022-11-20T08:46:58;128;103;
75946;PMS5003;64628;50.104;14.614;2022-11-20T08:49:23;119;98;
75946;PMS5003;64628;50.104;14.614;2022-11-20T08:51:49;136;114;
75946;PMS5003;64628;50.104;14.614;2022-11-20T08:54:14;139;112;
75946;PMS5003;64628;50.104;14.614;2022-11-20T08:56:44;144;124;
75946;PMS5003;64628;50.104;14.614;2022-11-20T08:59:05;132;102;
75946;PMS5003;64628;50.104;14.614;2022-11-20T09:01:30;129;109;
75946;PMS5003;64628;50.104;14.614;2022-11-20T09:03:55;148;110;
75946;PMS5003;64628;50.104;14.614;2022-11-20T09:06:20;143;109;
75946;PMS5003;64628;50.104;14.614;2022-11-20T09:08:45;136;104;
75946;PMS5003;64628;50.104;14.614;2022-11-20T09:11:13;145;107;
75946;PMS5003;64628;50.104;14.614;2022-11-20T09:13:36;125;103;
75946;PMS5003;64628;50.104;14.614;2022-11-20T09:16:02;117;93;
75946;PMS5003;64628;50.104;14.614;2022-11-20T09:18:27;132;112;
75946;PMS5003;64628;50.104;14.614;2022-11-20T09:20:55;131;110;
75946;PMS5003;64628;50.104;14.614;2022-11-20T09:23:17;144;110;
75946;PMS5003;64628;50.104;14.614;2022-11-20T09:25:43;160;124;
75946;PMS5003;64628;50.104;14.614;2022-11-20T09:28:09;145;116;
75946;PMS5003;64628;50.104;14.614;2022-11-20T09:30:34;136;107;
75946;PMS5003;64628;50.104;14.614;2022-11-20T09:32:59;147;115;
75946;PMS5003;64628;50.104;14.614;2022-11-20T09:35:29;150;117;
75946;PMS5003;64628;50.104;14.614;2022-11-20T09:37:50;148;115;
75946;PMS5003;64628;50.104;14.614;2022-11-20T09:42:43;129;103;
75946;PMS5003;64628;50.104;14.614;2022-11-20T09:45:13;125;100;
75946;PMS5003;64628;50.104;14.614;2022-11-20T09:47:35;118;98;
75946;PMS5003;64628;50.104;14.614;2022-11-20T09:50:01;131;110;
75946;PMS5003;64628;50.104;14.614;2022-11-20T09:52:26;134;101;
75946;PMS5003;64628;50.104;14.614;2022-11-20T09:54:53;134;106;
75946;PMS5003;64628;50.104;14.614;2022-11-20T09:57:14;114;100;
75946;PMS5003;64628;50.104;14.614;2022-11-20T09:59:40;123;98;
75946;PMS5003;64628;50.104;14.614;2022-11-20T10:02:12;115;95;
75946;PMS5003;64628;50.104;14.614;2022-11-20T10:04:30;120;100;
75946;PMS5003;64628;50.104;14.614;2022-11-20T10:06:56;129;108;
75946;PMS5003;64628;50.104;14.614;2022-11-20T10:14:17;126;104;
75946;PMS5003;64628;50.104;14.614;2022-11-20T10:16:38;124;97;
75946;PMS5003;64628;50.104;14.614;2022-11-20T10:21:29;132;106;
75946;PMS5003;64628;50.104;14.614;2022-11-20T10:23:58;134;107;
75946;PMS5003;64628;50.104;14.614;2022-11-20T10:26:21;136;116;
75946;PMS5003;64628;50.104;14.614;2022-11-20T10:28:46;130;113;
75946;PMS5003;64628;50.104;14.614;2022-11-20T10:31:17;129;112;
75946;PMS5003;64628;50.104;14.614;2022-11-20T10:33:35;134;111;
75946;PMS5003;64628;50.104;14.614;2022-11-20T10:36:01;129;101;
75946;PMS5003;64628;50.104;14.614;2022-11-20T10:38:25;141;104;
75946;PMS5003;64628;50.104;14.614;2022-11-20T10:40:57;125;104;
75946;PMS5003;64628;50.104;14.614;2022-11-20T10:43:16;147;113;
75946;PMS5003;64628;50.104;14.614;2022-11-20T10:45:49;156;111;
75946;PMS5003;64628;50.104;14.614;2022-11-20T10:48:12;148;120;
75946;PMS5003;64628;50.104;14.614;2022-11-20T10:50:32;161;117;
75946;PMS5003;64628;50.104;14.614;2022-11-20T10:53:01;140;111;
75946;PMS5003;64628;50.104;14.614;2022-11-20T10:57:53;145;113;
75946;PMS5003;64628;50.104;14.614;2022-11-20T11:00:14;153;120;
75946;PMS5003;64628;50.104;14.614;2022-11-20T11:02:42;132;111;
75946;PMS5003;64628;50.104;14.614;2022-11-20T11:05:12;159;123;
75946;PMS5003;64628;50.104;14.614;2022-11-20T11:07:33;171;132;
75946;PMS5003;64628;50.104;14.614;2022-11-20T11:12:23;139;110;
75946;PMS5003;64628;50.104;14.614;2022-11-20T11:14:48;151;126;
75946;PMS5003;64628;50.104;14.614;2022-11-20T11:19:41;160;125;
75946;PMS5003;64628;50.104;14.614;2022-11-20T11:22:03;148;119;
75946;PMS5003;64628;50.104;14.614;2022-11-20T11:24:29;165;125;
75946;PMS5003;64628;50.104;14.614;2022-11-20T11:26:55;143;113;
75946;PMS5003;64628;50.104;14.614;2022-11-20T11:29:19;154;123;
75946;PMS5003;64628;50.104;14.614;2022-11-20T11:31:44;166;129;
75946;PMS5003;64628;50.104;14.614;2022-11-20T11:34:11;149;126;
75946;PMS5003;64628;50.104;14.614;2022-11-20T11:36:35;165;137;
75946;PMS5003;64628;50.104;14.614;2022-11-20T11:39:01;151;125;
75946;PMS5003;64628;50.104;14.614;2022-11-20T11:41:27;147;121;
75946;PMS5003;64628;50.104;14.614;2022-11-20T11:43:52;144;119;
75946;PMS5003;64628;50.104;14.614;2022-11-20T11:46:24;125;108;
75946;PMS5003;64628;50.104;14.614;2022-11-20T11:48:43;126;112;
75946;PMS5003;64628;50.104;14.614;2022-11-20T11:51:08;131;109;
75946;PMS5003;64628;50.104;14.614;2022-11-20T11:53:34;129;111;
75946;PMS5003;64628;50.104;14.614;2022-11-20T11:56:02;143;111;
75946;PMS5003;64628;50.104;14.614;2022-11-20T11:58:31;125;101;
75946;PMS5003;64628;50.104;14.614;2022-11-20T12:00:52;114;97;
75946;PMS5003;64628;50.104;14.614;2022-11-20T12:03:16;124;96;
75946;PMS5003;64628;50.104;14.614;2022-11-20T12:05:42;117;101;
75946;PMS5003;64628;50.104;14.614;2022-11-20T12:08:10;139;116;
75946;PMS5003;64628;50.104;14.614;2022-11-20T12:10:36;131;106;
75946;PMS5003;64628;50.104;14.614;2022-11-20T12:13:00;125;103;
75946;PMS5003;64628;50.104;14.614;2022-11-20T12:15:26;138;103;
75946;PMS5003;64628;50.104;14.614;2022-11-20T12:17:49;136;106;
75946;PMS5003;64628;50.104;14.614;2022-11-20T12:20:15;136;117;
75946;PMS5003;64628;50.104;14.614;2022-11-20T12:22:43;140;116;
75946;PMS5003;64628;50.104;14.614;2022-11-20T12:25:07;155;112;
75946;PMS5003;64628;50.104;14.614;2022-11-20T12:27:38;132;108;
75946;PMS5003;64628;50.104;14.614;2022-11-20T12:29:58;132;113;
75946;PMS5003;64628;50.104;14.614;2022-11-20T12:34:52;175;139;
75946;PMS5003;64628;50.104;14.614;2022-11-20T12:37:19;162;130;
75946;PMS5003;64628;50.104;14.614;2022-11-20T12:39:41;176;126;
75946;PMS5003;64628;50.104;14.614;2022-11-20T12:42:15;174;133;
75946;PMS5003;64628;50.104;14.614;2022-11-20T12:44:35;173;147;
75946;PMS5003;64628;50.104;14.614;2022-11-20T12:46:57;196;146;
75946;PMS5003;64628;50.104;14.614;2022-11-20T12:49:26;167;137;
75946;PMS5003;64628;50.104;14.614;2022-11-20T12:51:49;157;135;
75946;PMS5003;64628;50.104;14.614;2022-11-20T12:56:40;167;139;
75946;PMS5003;64628;50.104;14.614;2022-11-20T12:59:07;179;141;
75946;PMS5003;64628;50.104;14.614;2022-11-20T13:01:30;171;142;
75946;PMS5003;64628;50.104;14.614;2022-11-20T13:03:55;165;143;
75946;PMS5003;64628;50.104;14.614;2022-11-20T13:06:20;152;122;
75946;PMS5003;64628;50.104;14.614;2022-11-20T13:08:48;162;136;
75946;PMS5003;64628;50.104;14.614;2022-11-20T13:11:14;178;144;
75946;PMS5003;64628;50.104;14.614;2022-11-20T13:13:41;158;139;
75946;PMS5003;64628;50.104;14.614;2022-11-20T13:16:04;179;148;
75946;PMS5003;64628;50.104;14.614;2022-11-20T13:18:28;162;139;
75946;PMS5003;64628;50.104;14.614;2022-11-20T13:20:53;187;150;
75946;PMS5003;64628;50.104;14.614;2022-11-20T13:23:24;148;126;
75946;PMS5003;64628;50.104;14.614;2022-11-20T13:25:44;201;172;
75946;PMS5003;64628;50.104;14.614;2022-11-20T13:30:35;191;168;
75946;PMS5003;64628;50.104;14.614;2022-11-20T13:33:02;175;140;
75946;PMS5003;64628;50.104;14.614;2022-11-20T13:35:27;178;143;
75946;PMS5003;64628;50.104;14.614;2022-11-20T13:40:21;170;147;
75946;PMS5003;64628;50.104;14.614;2022-11-20T13:42:44;164;124;
75946;PMS5003;64628;50.104;14.614;2022-11-20T13:45:09;147;126;
75946;PMS5003;64628;50.104;14.614;2022-11-20T13:47:34;167;135;
75946;PMS5003;64628;50.104;14.614;2022-11-20T13:49:58;160;128;
75946;PMS5003;64628;50.104;14.614;2022-11-20T13:52:30;190;150;
75946;PMS5003;64628;50.104;14.614;2022-11-20T13:54:52;148;133;
75946;PMS5003;64628;50.104;14.614;2022-11-20T13:57:19;172;133;
75946;PMS5003;64628;50.104;14.614;2022-11-20T13:59:42;174;148;
75946;PMS5003;64628;50.104;14.614;2022-11-20T14:02:08;167;138;
75946;PMS5003;64628;50.104;14.614;2022-11-20T14:04:32;149;127;
75946;PMS5003;64628;50.104;14.614;2022-11-20T14:06:56;160;124;
75946;PMS5003;64628;50.104;14.614;2022-11-20T14:09:25;164;133;
75946;PMS5003;64628;50.104;14.614;2022-11-20T14:11:47;173;138;
75946;PMS5003;64628;50.104;14.614;2022-11-20T14:14:13;152;131;
75946;PMS5003;64628;50.104;14.614;2022-11-20T14:16:37;176;137;
75946;PMS5003;64628;50.104;14.614;2022-11-20T14:21:28;160;133;
75946;PMS5003;64628;50.104;14.614;2022-11-20T14:23:54;161;139;
75946;PMS5003;64628;50.104;14.614;2022-11-20T14:26:19;155;132;
75946;PMS5003;64628;50.104;14.614;2022-11-20T14:28:47;159;137;
75946;PMS5003;64628;50.104;14.614;2022-11-20T14:31:15;175;126;
75946;PMS5003;64628;50.104;14.614;2022-11-20T14:33:35;177;137;
75946;PMS5003;64628;50.104;14.614;2022-11-20T14:36:00;172;142;
75946;PMS5003;64628;50.104;14.614;2022-11-20T14:38:26;164;128;
75946;PMS5003;64628;50.104;14.614;2022-11-20T14:40:51;155;130;
75946;PMS5003;64628;50.104;14.614;2022-11-20T14:43:23;170;138;
75946;PMS5003;64628;50.104;14.614;2022-11-20T14:45:42;158;134;
75946;PMS5003;64628;50.104;14.614;2022-11-20T14:48:08;158;134;
75946;PMS5003;64628;50.104;14.614;2022-11-20T14:50:33;176;140;
75946;PMS5003;64628;50.104;14.614;2022-11-20T14:52:59;143;127;
75946;PMS5003;64628;50.104;14.614;2022-11-20T14:55:25;176;141;
75946;PMS5003;64628;50.104;14.614;2022-11-20T14:57:54;177;147;
75946;PMS5003;64628;50.104;14.614;2022-11-20T15:00:18;177;143;
75946;PMS5003;64628;50.104;14.614;2022-11-20T15:02:40;170;147;
75946;PMS5003;64628;50.104;14.614;2022-11-20T15:05:06;171;137;
75946;PMS5003;64628;50.104;14.614;2022-11-20T15:07:32;160;133;
75946;PMS5003;64628;50.104;14.614;2022-11-20T15:09:59;176;140;
75946;PMS5003;64628;50.104;14.614;2022-11-20T15:12:22;179;142;
75946;PMS5003;64628;50.104;14.614;2022-11-20T15:14:47;167;136;
75946;PMS5003;64628;50.104;14.614;2022-11-20T15:17:12;195;152;
75946;PMS5003;64628;50.104;14.614;2022-11-20T15:19:37;182;147;
75946;PMS5003;64628;50.104;14.614;2022-11-20T15:22:02;186;143;
75946;PMS5003;64628;50.104;14.614;2022-11-20T15:24:35;185;140;
75946;PMS5003;64628;50.104;14.614;2022-11-20T15:26:53;169;139;
75946;PMS5003;64628;50.104;14.614;2022-11-20T15:29:19;205;153;
75946;PMS5003;64628;50.104;14.614;2022-11-20T15:31:44;177;145;
75946;PMS5003;64628;50.104;14.614;2022-11-20T15:34:10;196;150;
75946;PMS5003;64628;50.104;14.614;2022-11-20T15:36:34;171;143;
75946;PMS5003;64628;50.104;14.614;2022-11-20T15:39:00;166;134;
75946;PMS5003;64628;50.104;14.614;2022-11-20T15:41:26;156;131;
75946;PMS5003;64628;50.104;14.614;2022-11-20T15:43:52;183;148;
75946;PMS5003;64628;50.104;14.614;2022-11-20T15:46:19;194;143;
75946;PMS5003;64628;50.104;14.614;2022-11-20T15:48:43;166;139;
75946;PMS5003;64628;50.104;14.614;2022-11-20T15:51:11;161;136;
75946;PMS5003;64628;50.104;14.614;2022-11-20T15:53:34;156;127;
75946;PMS5003;64628;50.104;14.614;2022-11-20T15:55:59;154;119;
75946;PMS5003;64628;50.104;14.614;2022-11-20T15:58:24;153;121;